sensor_id;sensor_type;location;lat;lon;timestamp;temperature;humidity
14192;DHT22;7177;48.572;7.838;2023-05-17T00:01:41;8.00;99.90
14192;DHT22;7177;48.572;7.838;2023-05-17T00:04:07;7.90;99.90
14192;DHT22;7177;48.572;7.838;2023-05-17T00:06:32;7.80;99.90
14192;DHT22;7177;48.572;7.838;2023-05-17T00:08:59;7.80;99.90
14192;DHT22;7177;48.572;7.838;2023-05-17T00:11:25;7.90;99.90
14192;DHT22;7177;48.572;7.838;2023-05-17T00:13:50;7.90;99.90
14192;DHT22;7177;48.572;7.838;2023-05-17T00:16:16;7.90;99.90
14192;DHT22;7177;48.572;7.838;2023-05-17T00:18:41;7.90;99.90
14192;DHT22;7177;48.572;7.838;2023-05-17T00:21:07;8.00;99.90
14192;DHT22;7177;48.572;7.838;2023-05-17T00:23:33;8.10;99.90
14192;DHT22;7177;48.572;7.838;2023-05-17T00:25:58;8.10;99.90
14192;DHT22;7177;48.572;7.838;2023-05-17T00:28:24;8.20;99.90
14192;DHT22;7177;48.572;7.838;2023-05-17T00:30:49;8.20;99.90
14192;DHT22;7177;48.572;7.838;2023-05-17T00:33:15;8.20;99.90
14192;DHT22;7177;48.572;7.838;2023-05-17T00:35:40;8.30;99.90
14192;DHT22;7177;48.572;7.838;2023-05-17T00:38:06;8.30;99.90
14192;DHT22;7177;48.572;7.838;2023-05-17T00:40:31;8.30;99.90
14192;DHT22;7177;48.572;7.838;2023-05-17T00:42:57;8.30;99.90
14192;DHT22;7177;48.572;7.838;2023-05-17T00:45:22;8.30;99.90
14192;DHT22;7177;48.572;7.838;2023-05-17T00:47:48;8.20;99.90
14192;DHT22;7177;48.572;7.838;2023-05-17T00:50:13;8.30;99.90
14192;DHT22;7177;48.572;7.838;2023-05-17T00:52:39;8.20;99.90
14192;DHT22;7177;48.572;7.838;2023-05-17T00:55:05;8.10;99.90
14192;DHT22;7177;48.572;7.838;2023-05-17T00:57:30;7.90;99.90
14192;DHT22;7177;48.572;7.838;2023-05-17T00:59:57;7.70;99.90
14192;DHT22;7177;48.572;7.838;2023-05-17T01:02:23;7.70;99.90
14192;DHT22;7177;48.572;7.838;2023-05-17T01:04:48;7.60;99.90
14192;DHT22;7177;48.572;7.838;2023-05-17T01:07:15;7.50;99.90
14192;DHT22;7177;48.572;7.838;2023-05-17T01:09:41;7.50;99.90
14192;DHT22;7177;48.572;7.838;2023-05-17T01:17:50;7.60;99.90
14192;DHT22;7177;48.572;7.838;2023-05-17T01:20:28;7.60;99.90
14192;DHT22;7177;48.572;7.838;2023-05-17T01:26:12;7.60;99.90
14192;DHT22;7177;48.572;7.838;2023-05-17T01:28:39;7.60;99.90
14192;DHT22;7177;48.572;7.838;2023-05-17T01:31:07;7.60;99.90
14192;DHT22;7177;48.572;7.838;2023-05-17T01:33:33;7.60;99.90
14192;DHT22;7177;48.572;7.838;2023-05-17T01:35:59;7.60;99.90
14192;DHT22;7177;48.572;7.838;2023-05-17T01:38:25;7.60;99.90
14192;DHT22;7177;48.572;7.838;2023-05-17T01:41:13;7.50;99.90
14192;DHT22;7177;48.572;7.838;2023-05-17T01:43:59;7.50;99.90
14192;DHT22;7177;48.572;7.838;2023-05-17T01:46:37;7.50;99.90
14192;DHT22;7177;48.572;7.838;2023-05-17T01:52:02;7.30;99.90
14192;DHT22;7177;48.572;7.838;2023-05-17T01:54:53;7.30;99.90
14192;DHT22;7177;48.572;7.838;2023-05-17T01:57:23;7.30;99.90
14192;DHT22;7177;48.572;7.838;2023-05-17T01:59:50;7.40;99.90
14192;DHT22;7177;48.572;7.838;2023-05-17T02:02:17;7.40;99.90
14192;DHT22;7177;48.572;7.838;2023-05-17T02:04:42;7.40;99.90
14192;DHT22;7177;48.572;7.838;2023-05-17T02:07:08;7.40;99.90
14192;DHT22;7177;48.572;7.838;2023-05-17T02:09:34;7.40;99.90
14192;DHT22;7177;48.572;7.838;2023-05-17T02:11:59;7.30;99.90
14192;DHT22;7177;48.572;7.838;2023-05-17T02:14:25;7.10;99.90
14192;DHT22;7177;48.572;7.838;2023-05-17T02:16:51;7.00;99.90
14192;DHT22;7177;48.572;7.838;2023-05-17T02:19:17;7.00;99.90
14192;DHT22;7177;48.572;7.838;2023-05-17T02:21:42;7.00;99.90
14192;DHT22;7177;48.572;7.838;2023-05-17T02:24:08;7.10;99.90
14192;DHT22;7177;48.572;7.838;2023-05-17T02:26:33;7.10;99.90
14192;DHT22;7177;48.572;7.838;2023-05-17T02:28:59;7.10;99.90
14192;DHT22;7177;48.572;7.838;2023-05-17T02:31:24;7.10;99.90
14192;DHT22;7177;48.572;7.838;2023-05-17T02:33:52;7.10;99.90
14192;DHT22;7177;48.572;7.838;2023-05-17T02:36:17;7.10;99.90
14192;DHT22;7177;48.572;7.838;2023-05-17T02:38:43;7.10;99.90
14192;DHT22;7177;48.572;7.838;2023-05-17T02:41:08;7.10;99.90
14192;DHT22;7177;48.572;7.838;2023-05-17T02:43:34;7.10;99.90
14192;DHT22;7177;48.572;7.838;2023-05-17T02:45:59;7.00;99.90
14192;DHT22;7177;48.572;7.838;2023-05-17T02:48:25;6.90;99.90
14192;DHT22;7177;48.572;7.838;2023-05-17T02:50:50;6.80;99.90
14192;DHT22;7177;48.572;7.838;2023-05-17T02:53:16;6.70;99.90
14192;DHT22;7177;48.572;7.838;2023-05-17T02:55:41;6.70;99.90
14192;DHT22;7177;48.572;7.838;2023-05-17T02:58:07;6.60;99.90
14192;DHT22;7177;48.572;7.838;2023-05-17T03:00:32;6.70;99.90
14192;DHT22;7177;48.572;7.838;2023-05-17T03:02:58;6.70;99.90
14192;DHT22;7177;48.572;7.838;2023-05-17T03:05:23;6.60;99.90
14192;DHT22;7177;48.572;7.838;2023-05-17T03:07:49;6.70;99.90
14192;DHT22;7177;48.572;7.838;2023-05-17T03:10:14;6.70;99.90
14192;DHT22;7177;48.572;7.838;2023-05-17T03:12:40;6.70;99.90
14192;DHT22;7177;48.572;7.838;2023-05-17T03:15:06;6.60;99.90
14192;DHT22;7177;48.572;7.838;2023-05-17T03:17:32;6.70;99.90
14192;DHT22;7177;48.572;7.838;2023-05-17T03:19:57;6.70;99.90
14192;DHT22;7177;48.572;7.838;2023-05-17T03:22:23;6.70;99.90
14192;DHT22;7177;48.572;7.838;2023-05-17T03:24:48;6.70;99.90
14192;DHT22;7177;48.572;7.838;2023-05-17T03:27:14;6.70;99.90
14192;DHT22;7177;48.572;7.838;2023-05-17T03:29:39;6.80;99.90
14192;DHT22;7177;48.572;7.838;2023-05-17T03:32:05;6.80;99.90
14192;DHT22;7177;48.572;7.838;2023-05-17T03:34:31;6.80;99.90
14192;DHT22;7177;48.572;7.838;2023-05-17T03:36:56;6.80;99.90
14192;DHT22;7177;48.572;7.838;2023-05-17T03:39:22;6.80;99.90
14192;DHT22;7177;48.572;7.838;2023-05-17T03:41:47;6.80;99.90
14192;DHT22;7177;48.572;7.838;2023-05-17T03:44:13;6.70;99.90
14192;DHT22;7177;48.572;7.838;2023-05-17T03:46:38;6.70;99.90
14192;DHT22;7177;48.572;7.838;2023-05-17T03:49:04;6.70;99.90
14192;DHT22;7177;48.572;7.838;2023-05-17T03:51:29;6.70;99.90
14192;DHT22;7177;48.572;7.838;2023-05-17T03:53:59;6.70;99.90
14192;DHT22;7177;48.572;7.838;2023-05-17T03:56:24;6.80;99.90
14192;DHT22;7177;48.572;7.838;2023-05-17T03:58:50;6.80;99.90
14192;DHT22;7177;48.572;7.838;2023-05-17T04:01:16;6.80;99.90
14192;DHT22;7177;48.572;7.838;2023-05-17T04:03:41;6.80;99.90
14192;DHT22;7177;48.572;7.838;2023-05-17T04:06:07;6.80;99.90
14192;DHT22;7177;48.572;7.838;2023-05-17T04:08:33;6.80;99.90
14192;DHT22;7177;48.572;7.838;2023-05-17T04:10:59;6.90;99.90
14192;DHT22;7177;48.572;7.838;2023-05-17T04:13:37;6.90;99.90
14192;DHT22;7177;48.572;7.838;2023-05-17T04:16:02;7.00;99.90
14192;DHT22;7177;48.572;7.838;2023-05-17T04:18:28;7.00;99.90
14192;DHT22;7177;48.572;7.838;2023-05-17T04:20:56;7.00;99.90
14192;DHT22;7177;48.572;7.838;2023-05-17T04:23:22;7.10;99.90
14192;DHT22;7177;48.572;7.838;2023-05-17T04:25:47;7.10;99.90
14192;DHT22;7177;48.572;7.838;2023-05-17T04:28:13;7.30;99.90
14192;DHT22;7177;48.572;7.838;2023-05-17T04:30:42;7.90;99.90
14192;DHT22;7177;48.572;7.838;2023-05-17T04:33:07;8.10;99.90
14192;DHT22;7177;48.572;7.838;2023-05-17T04:35:33;8.30;99.90
14192;DHT22;7177;48.572;7.838;2023-05-17T04:37:58;8.50;99.90
14192;DHT22;7177;48.572;7.838;2023-05-17T04:40:24;8.40;99.90
14192;DHT22;7177;48.572;7.838;2023-05-17T04:42:50;8.50;99.90
14192;DHT22;7177;48.572;7.838;2023-05-17T04:45:16;8.40;99.90
14192;DHT22;7177;48.572;7.838;2023-05-17T04:47:42;8.30;99.90
14192;DHT22;7177;48.572;7.838;2023-05-17T04:50:08;8.20;99.90
14192;DHT22;7177;48.572;7.838;2023-05-17T04:52:33;8.10;99.90
14192;DHT22;7177;48.572;7.838;2023-05-17T04:54:59;8.00;99.90
14192;DHT22;7177;48.572;7.838;2023-05-17T04:57:24;8.00;99.90
14192;DHT22;7177;48.572;7.838;2023-05-17T04:59:50;8.00;99.90
14192;DHT22;7177;48.572;7.838;2023-05-17T05:02:15;7.90;99.90
14192;DHT22;7177;48.572;7.838;2023-05-17T05:04:41;7.90;99.90
14192;DHT22;7177;48.572;7.838;2023-05-17T05:07:06;8.00;99.90
14192;DHT22;7177;48.572;7.838;2023-05-17T05:09:32;8.00;99.90
14192;DHT22;7177;48.572;7.838;2023-05-17T05:11:57;8.00;99.90
14192;DHT22;7177;48.572;7.838;2023-05-17T05:14:23;8.00;99.90
14192;DHT22;7177;48.572;7.838;2023-05-17T05:16:48;8.10;99.90
14192;DHT22;7177;48.572;7.838;2023-05-17T05:19:14;8.20;99.90
14192;DHT22;7177;48.572;7.838;2023-05-17T05:21:39;8.40;99.90
14192;DHT22;7177;48.572;7.838;2023-05-17T05:24:05;8.60;99.90
14192;DHT22;7177;48.572;7.838;2023-05-17T05:26:31;8.80;99.90
14192;DHT22;7177;48.572;7.838;2023-05-17T05:28:57;9.00;99.90
14192;DHT22;7177;48.572;7.838;2023-05-17T05:31:22;9.10;99.90
14192;DHT22;7177;48.572;7.838;2023-05-17T05:33:48;9.20;99.90
14192;DHT22;7177;48.572;7.838;2023-05-17T05:36:14;9.30;99.90
14192;DHT22;7177;48.572;7.838;2023-05-17T05:38:39;9.40;99.90
14192;DHT22;7177;48.572;7.838;2023-05-17T05:41:05;9.30;99.90
14192;DHT22;7177;48.572;7.838;2023-05-17T05:43:30;9.30;99.90
14192;DHT22;7177;48.572;7.838;2023-05-17T05:45:56;9.40;99.90
14192;DHT22;7177;48.572;7.838;2023-05-17T05:48:21;9.40;99.90
14192;DHT22;7177;48.572;7.838;2023-05-17T05:50:47;9.50;99.90
14192;DHT22;7177;48.572;7.838;2023-05-17T05:53:12;9.70;99.90
14192;DHT22;7177;48.572;7.838;2023-05-17T05:55:41;9.90;99.90
14192;DHT22;7177;48.572;7.838;2023-05-17T05:58:07;10.10;99.90
14192;DHT22;7177;48.572;7.838;2023-05-17T06:00:33;10.30;99.90
14192;DHT22;7177;48.572;7.838;2023-05-17T06:02:59;10.60;99.90
14192;DHT22;7177;48.572;7.838;2023-05-17T06:05:24;10.80;99.90
14192;DHT22;7177;48.572;7.838;2023-05-17T06:07:50;11.00;99.90
14192;DHT22;7177;48.572;7.838;2023-05-17T06:10:15;11.10;99.90
14192;DHT22;7177;48.572;7.838;2023-05-17T06:12:41;11.30;99.90
14192;DHT22;7177;48.572;7.838;2023-05-17T06:15:07;11.40;99.90
14192;DHT22;7177;48.572;7.838;2023-05-17T06:17:32;11.50;99.90
14192;DHT22;7177;48.572;7.838;2023-05-17T06:19:58;11.50;99.90
14192;DHT22;7177;48.572;7.838;2023-05-17T06:22:24;11.50;99.90
14192;DHT22;7177;48.572;7.838;2023-05-17T06:24:49;11.50;99.90
14192;DHT22;7177;48.572;7.838;2023-05-17T06:27:15;11.50;99.90
14192;DHT22;7177;48.572;7.838;2023-05-17T06:29:40;11.60;99.90
14192;DHT22;7177;48.572;7.838;2023-05-17T06:32:06;11.70;99.90
14192;DHT22;7177;48.572;7.838;2023-05-17T06:34:31;11.70;99.90
14192;DHT22;7177;48.572;7.838;2023-05-17T06:36:57;11.50;99.90
14192;DHT22;7177;48.572;7.838;2023-05-17T06:39:23;11.60;99.90
14192;DHT22;7177;48.572;7.838;2023-05-17T06:41:48;11.60;99.90
14192;DHT22;7177;48.572;7.838;2023-05-17T06:44:14;11.50;99.90
14192;DHT22;7177;48.572;7.838;2023-05-17T06:46:39;11.50;99.90
14192;DHT22;7177;48.572;7.838;2023-05-17T06:49:05;11.80;99.90
14192;DHT22;7177;48.572;7.838;2023-05-17T06:51:30;12.00;99.90
14192;DHT22;7177;48.572;7.838;2023-05-17T06:53:56;12.00;99.90
14192;DHT22;7177;48.572;7.838;2023-05-17T06:56:21;12.00;99.90
14192;DHT22;7177;48.572;7.838;2023-05-17T06:58:47;12.10;99.90
14192;DHT22;7177;48.572;7.838;2023-05-17T07:01:12;12.10;99.90
14192;DHT22;7177;48.572;7.838;2023-05-17T07:03:38;12.10;99.90
14192;DHT22;7177;48.572;7.838;2023-05-17T07:06:04;12.30;99.90
14192;DHT22;7177;48.572;7.838;2023-05-17T07:08:29;12.50;99.90
14192;DHT22;7177;48.572;7.838;2023-05-17T07:10:55;12.80;99.90
14192;DHT22;7177;48.572;7.838;2023-05-17T07:13:20;12.80;99.90
14192;DHT22;7177;48.572;7.838;2023-05-17T07:15:46;12.90;99.90
14192;DHT22;7177;48.572;7.838;2023-05-17T07:18:11;12.80;99.90
14192;DHT22;7177;48.572;7.838;2023-05-17T07:20:37;12.80;99.90
14192;DHT22;7177;48.572;7.838;2023-05-17T07:23:02;12.70;99.90
14192;DHT22;7177;48.572;7.838;2023-05-17T07:25:28;12.50;99.90
14192;DHT22;7177;48.572;7.838;2023-05-17T07:27:54;12.40;99.90
14192;DHT22;7177;48.572;7.838;2023-05-17T07:30:19;12.50;99.90
14192;DHT22;7177;48.572;7.838;2023-05-17T07:32:45;12.60;99.90
14192;DHT22;7177;48.572;7.838;2023-05-17T07:35:10;12.70;99.90
14192;DHT22;7177;48.572;7.838;2023-05-17T07:37:36;13.00;99.90
14192;DHT22;7177;48.572;7.838;2023-05-17T07:40:01;13.30;99.90
14192;DHT22;7177;48.572;7.838;2023-05-17T07:42:28;13.40;99.90
14192;DHT22;7177;48.572;7.838;2023-05-17T07:44:54;13.50;99.90
14192;DHT22;7177;48.572;7.838;2023-05-17T07:47:19;13.50;99.90
14192;DHT22;7177;48.572;7.838;2023-05-17T07:49:45;13.70;99.90
14192;DHT22;7177;48.572;7.838;2023-05-17T07:52:10;13.80;99.90
14192;DHT22;7177;48.572;7.838;2023-05-17T07:54:36;14.10;99.90
14192;DHT22;7177;48.572;7.838;2023-05-17T07:57:01;14.40;99.90
14192;DHT22;7177;48.572;7.838;2023-05-17T07:59:27;14.90;99.90
14192;DHT22;7177;48.572;7.838;2023-05-17T08:01:53;15.20;99.90
14192;DHT22;7177;48.572;7.838;2023-05-17T08:04:18;15.30;99.90
14192;DHT22;7177;48.572;7.838;2023-05-17T08:06:44;15.40;99.90
14192;DHT22;7177;48.572;7.838;2023-05-17T08:09:13;15.60;99.90
14192;DHT22;7177;48.572;7.838;2023-05-17T08:11:41;15.40;99.90
14192;DHT22;7177;48.572;7.838;2023-05-17T08:14:11;15.20;99.90
14192;DHT22;7177;48.572;7.838;2023-05-17T08:16:37;15.20;99.90
14192;DHT22;7177;48.572;7.838;2023-05-17T08:19:02;15.50;99.90
14192;DHT22;7177;48.572;7.838;2023-05-17T08:21:28;15.70;99.90
14192;DHT22;7177;48.572;7.838;2023-05-17T08:23:54;15.80;99.90
14192;DHT22;7177;48.572;7.838;2023-05-17T08:26:19;15.70;99.90
14192;DHT22;7177;48.572;7.838;2023-05-17T08:28:45;15.50;99.90
14192;DHT22;7177;48.572;7.838;2023-05-17T08:31:10;15.60;99.90
14192;DHT22;7177;48.572;7.838;2023-05-17T08:33:36;15.60;99.90
14192;DHT22;7177;48.572;7.838;2023-05-17T08:36:02;15.80;99.90
14192;DHT22;7177;48.572;7.838;2023-05-17T08:38:32;15.80;99.90
14192;DHT22;7177;48.572;7.838;2023-05-17T08:40:58;15.60;99.90
14192;DHT22;7177;48.572;7.838;2023-05-17T08:43:24;15.80;99.90
14192;DHT22;7177;48.572;7.838;2023-05-17T08:45:50;15.90;99.90
14192;DHT22;7177;48.572;7.838;2023-05-17T08:48:18;16.30;99.90
14192;DHT22;7177;48.572;7.838;2023-05-17T08:50:45;16.50;99.90
14192;DHT22;7177;48.572;7.838;2023-05-17T08:53:12;16.50;99.90
14192;DHT22;7177;48.572;7.838;2023-05-17T08:55:45;16.90;99.90
14192;DHT22;7177;48.572;7.838;2023-05-17T08:58:14;16.70;99.90
14192;DHT22;7177;48.572;7.838;2023-05-17T09:00:41;16.40;99.90
14192;DHT22;7177;48.572;7.838;2023-05-17T09:03:08;16.60;99.90
14192;DHT22;7177;48.572;7.838;2023-05-17T09:05:33;16.90;99.90
14192;DHT22;7177;48.572;7.838;2023-05-17T09:08:01;17.20;99.90
14192;DHT22;7177;48.572;7.838;2023-05-17T09:10:26;17.40;99.90
14192;DHT22;7177;48.572;7.838;2023-05-17T09:12:52;17.40;99.90
14192;DHT22;7177;48.572;7.838;2023-05-17T09:15:19;17.30;99.90
14192;DHT22;7177;48.572;7.838;2023-05-17T09:17:53;17.30;99.90
14192;DHT22;7177;48.572;7.838;2023-05-17T09:20:23;16.90;99.90
14192;DHT22;7177;48.572;7.838;2023-05-17T09:22:49;16.20;99.90
14192;DHT22;7177;48.572;7.838;2023-05-17T09:25:19;15.70;99.90
14192;DHT22;7177;48.572;7.838;2023-05-17T09:27:44;15.40;99.90
14192;DHT22;7177;48.572;7.838;2023-05-17T09:30:10;15.30;99.90
14192;DHT22;7177;48.572;7.838;2023-05-17T09:32:42;15.30;99.90
14192;DHT22;7177;48.572;7.838;2023-05-17T09:35:10;15.20;99.90
14192;DHT22;7177;48.572;7.838;2023-05-17T09:37:38;15.30;99.90
14192;DHT22;7177;48.572;7.838;2023-05-17T09:40:07;15.20;99.90
14192;DHT22;7177;48.572;7.838;2023-05-17T09:42:36;15.00;99.90
14192;DHT22;7177;48.572;7.838;2023-05-17T09:45:03;14.90;99.90
14192;DHT22;7177;48.572;7.838;2023-05-17T09:47:29;14.80;99.90
14192;DHT22;7177;48.572;7.838;2023-05-17T09:49:56;15.00;99.90
14192;DHT22;7177;48.572;7.838;2023-05-17T09:52:23;15.60;99.90
14192;DHT22;7177;48.572;7.838;2023-05-17T09:54:59;15.50;99.90
14192;DHT22;7177;48.572;7.838;2023-05-17T09:57:35;15.30;99.90
14192;DHT22;7177;48.572;7.838;2023-05-17T10:00:02;15.30;99.90
14192;DHT22;7177;48.572;7.838;2023-05-17T10:02:30;15.20;99.90
14192;DHT22;7177;48.572;7.838;2023-05-17T10:05:00;15.20;99.90
14192;DHT22;7177;48.572;7.838;2023-05-17T10:07:30;15.00;99.90
14192;DHT22;7177;48.572;7.838;2023-05-17T10:09:57;14.90;99.90
14192;DHT22;7177;48.572;7.838;2023-05-17T10:12:24;14.90;99.90
14192;DHT22;7177;48.572;7.838;2023-05-17T10:14:52;15.10;99.90
14192;DHT22;7177;48.572;7.838;2023-05-17T10:17:20;15.30;99.90
14192;DHT22;7177;48.572;7.838;2023-05-17T10:19:46;15.50;99.90
14192;DHT22;7177;48.572;7.838;2023-05-17T10:22:12;15.60;99.90
14192;DHT22;7177;48.572;7.838;2023-05-17T10:24:39;15.70;99.90
14192;DHT22;7177;48.572;7.838;2023-05-17T10:27:05;15.70;99.90
14192;DHT22;7177;48.572;7.838;2023-05-17T10:29:35;15.60;99.90
14192;DHT22;7177;48.572;7.838;2023-05-17T10:32:03;15.50;99.90
14192;DHT22;7177;48.572;7.838;2023-05-17T10:34:33;15.60;99.90
14192;DHT22;7177;48.572;7.838;2023-05-17T10:37:00;16.60;99.90
14192;DHT22;7177;48.572;7.838;2023-05-17T10:39:26;18.00;99.90
14192;DHT22;7177;48.572;7.838;2023-05-17T10:41:54;19.00;99.90
14192;DHT22;7177;48.572;7.838;2023-05-17T10:44:20;19.20;99.90
14192;DHT22;7177;48.572;7.838;2023-05-17T10:46:54;18.70;99.90
14192;DHT22;7177;48.572;7.838;2023-05-17T10:49:23;18.10;99.90
14192;DHT22;7177;48.572;7.838;2023-05-17T10:51:50;18.00;99.90
14192;DHT22;7177;48.572;7.838;2023-05-17T10:54:15;17.20;99.90
14192;DHT22;7177;48.572;7.838;2023-05-17T10:56:51;17.20;99.90
14192;DHT22;7177;48.572;7.838;2023-05-17T10:59:19;17.00;99.90
14192;DHT22;7177;48.572;7.838;2023-05-17T11:02:05;16.90;99.90
14192;DHT22;7177;48.572;7.838;2023-05-17T11:12:28;16.80;99.90
14192;DHT22;7177;48.572;7.838;2023-05-17T11:14:55;16.90;99.90
14192;DHT22;7177;48.572;7.838;2023-05-17T11:17:23;16.90;99.90
14192;DHT22;7177;48.572;7.838;2023-05-17T11:22:22;16.90;99.90
14192;DHT22;7177;48.572;7.838;2023-05-17T11:24:50;17.70;99.90
14192;DHT22;7177;48.572;7.838;2023-05-17T11:27:18;17.70;99.90
14192;DHT22;7177;48.572;7.838;2023-05-17T11:29:47;17.60;99.90
14192;DHT22;7177;48.572;7.838;2023-05-17T11:32:12;17.60;99.90
14192;DHT22;7177;48.572;7.838;2023-05-17T11:34:38;17.60;99.90
14192;DHT22;7177;48.572;7.838;2023-05-17T11:37:09;17.30;99.90
14192;DHT22;7177;48.572;7.838;2023-05-17T11:39:35;17.10;99.90
14192;DHT22;7177;48.572;7.838;2023-05-17T11:42:01;16.80;99.90
14192;DHT22;7177;48.572;7.838;2023-05-17T11:44:31;16.80;99.90
14192;DHT22;7177;48.572;7.838;2023-05-17T11:47:07;16.80;99.90
14192;DHT22;7177;48.572;7.838;2023-05-17T11:49:37;16.80;99.90
14192;DHT22;7177;48.572;7.838;2023-05-17T11:52:06;16.90;99.90
14192;DHT22;7177;48.572;7.838;2023-05-17T11:54:33;16.90;99.90
14192;DHT22;7177;48.572;7.838;2023-05-17T11:56:59;16.70;99.90
14192;DHT22;7177;48.572;7.838;2023-05-17T11:59:27;16.40;99.90
14192;DHT22;7177;48.572;7.838;2023-05-17T12:01:52;16.10;99.90
14192;DHT22;7177;48.572;7.838;2023-05-17T12:04:25;15.90;99.90
14192;DHT22;7177;48.572;7.838;2023-05-17T12:06:51;15.90;99.90
14192;DHT22;7177;48.572;7.838;2023-05-17T12:09:17;15.90;99.90
14192;DHT22;7177;48.572;7.838;2023-05-17T12:11:43;16.10;99.90
14192;DHT22;7177;48.572;7.838;2023-05-17T12:14:09;16.10;99.90
14192;DHT22;7177;48.572;7.838;2023-05-17T12:16:40;16.20;99.90
14192;DHT22;7177;48.572;7.838;2023-05-17T12:19:16;16.40;99.90
14192;DHT22;7177;48.572;7.838;2023-05-17T12:21:44;16.60;99.90
14192;DHT22;7177;48.572;7.838;2023-05-17T12:24:09;16.80;99.90
14192;DHT22;7177;48.572;7.838;2023-05-17T12:26:41;16.90;99.90
14192;DHT22;7177;48.572;7.838;2023-05-17T12:29:09;16.80;99.90
14192;DHT22;7177;48.572;7.838;2023-05-17T12:31:38;16.80;99.90
14192;DHT22;7177;48.572;7.838;2023-05-17T12:34:10;17.00;99.90
14192;DHT22;7177;48.572;7.838;2023-05-17T12:36:41;17.20;99.90
14192;DHT22;7177;48.572;7.838;2023-05-17T12:39:08;17.10;99.90
14192;DHT22;7177;48.572;7.838;2023-05-17T12:41:37;17.10;99.90
14192;DHT22;7177;48.572;7.838;2023-05-17T12:44:04;16.60;99.90
14192;DHT22;7177;48.572;7.838;2023-05-17T12:46:31;16.30;99.90
14192;DHT22;7177;48.572;7.838;2023-05-17T12:49:04;16.30;99.90
14192;DHT22;7177;48.572;7.838;2023-05-17T12:54:06;16.00;99.90
14192;DHT22;7177;48.572;7.838;2023-05-17T12:56:31;16.10;99.90
14192;DHT22;7177;48.572;7.838;2023-05-17T13:01:41;16.30;99.90
14192;DHT22;7177;48.572;7.838;2023-05-17T13:04:07;16.30;99.90
14192;DHT22;7177;48.572;7.838;2023-05-17T13:06:52;16.10;99.90
14192;DHT22;7177;48.572;7.838;2023-05-17T13:09:20;16.20;99.90
14192;DHT22;7177;48.572;7.838;2023-05-17T13:11:50;16.20;99.90
14192;DHT22;7177;48.572;7.838;2023-05-17T13:14:38;16.50;99.90
14192;DHT22;7177;48.572;7.838;2023-05-17T13:17:06;16.90;99.90
14192;DHT22;7177;48.572;7.838;2023-05-17T13:19:32;17.10;99.90
14192;DHT22;7177;48.572;7.838;2023-05-17T13:21:59;17.20;99.90
14192;DHT22;7177;48.572;7.838;2023-05-17T13:24:25;17.20;99.90
14192;DHT22;7177;48.572;7.838;2023-05-17T13:26:52;17.40;99.90
14192;DHT22;7177;48.572;7.838;2023-05-17T13:29:18;17.30;99.90
14192;DHT22;7177;48.572;7.838;2023-05-17T13:31:43;17.40;99.90
14192;DHT22;7177;48.572;7.838;2023-05-17T13:34:09;17.50;99.90
14192;DHT22;7177;48.572;7.838;2023-05-17T13:36:34;17.30;99.90
14192;DHT22;7177;48.572;7.838;2023-05-17T13:39:00;17.10;99.90
14192;DHT22;7177;48.572;7.838;2023-05-17T13:41:26;17.00;99.90
14192;DHT22;7177;48.572;7.838;2023-05-17T13:43:52;17.00;99.90
14192;DHT22;7177;48.572;7.838;2023-05-17T13:46:18;16.90;99.90
14192;DHT22;7177;48.572;7.838;2023-05-17T13:48:43;16.80;99.90
14192;DHT22;7177;48.572;7.838;2023-05-17T13:51:09;16.80;99.90
14192;DHT22;7177;48.572;7.838;2023-05-17T13:53:34;16.80;99.90
14192;DHT22;7177;48.572;7.838;2023-05-17T13:56:02;16.80;99.90
14192;DHT22;7177;48.572;7.838;2023-05-17T13:58:28;16.80;99.90
14192;DHT22;7177;48.572;7.838;2023-05-17T14:00:54;16.90;99.90
14192;DHT22;7177;48.572;7.838;2023-05-17T14:03:19;16.80;99.90
14192;DHT22;7177;48.572;7.838;2023-05-17T14:05:45;16.90;99.90
14192;DHT22;7177;48.572;7.838;2023-05-17T14:08:15;17.10;99.90
14192;DHT22;7177;48.572;7.838;2023-05-17T14:10:41;17.40;99.90
14192;DHT22;7177;48.572;7.838;2023-05-17T14:13:06;17.70;99.90
14192;DHT22;7177;48.572;7.838;2023-05-17T14:15:32;18.20;99.90
14192;DHT22;7177;48.572;7.838;2023-05-17T14:18:03;18.40;98.70
14192;DHT22;7177;48.572;7.838;2023-05-17T14:20:29;18.00;97.00
14192;DHT22;7177;48.572;7.838;2023-05-17T14:22:55;18.00;97.60
14192;DHT22;7177;48.572;7.838;2023-05-17T14:25:20;17.90;97.10
14192;DHT22;7177;48.572;7.838;2023-05-17T14:27:46;18.00;98.60
14192;DHT22;7177;48.572;7.838;2023-05-17T14:30:12;18.30;96.60
14192;DHT22;7177;48.572;7.838;2023-05-17T14:32:38;18.60;97.80
14192;DHT22;7177;48.572;7.838;2023-05-17T14:35:05;18.70;96.10
14192;DHT22;7177;48.572;7.838;2023-05-17T14:37:31;18.80;95.50
14192;DHT22;7177;48.572;7.838;2023-05-17T14:39:57;18.60;94.50
14192;DHT22;7177;48.572;7.838;2023-05-17T14:42:22;18.20;96.70
14192;DHT22;7177;48.572;7.838;2023-05-17T14:44:48;18.20;97.70
14192;DHT22;7177;48.572;7.838;2023-05-17T14:47:13;18.10;98.50
14192;DHT22;7177;48.572;7.838;2023-05-17T14:49:39;18.50;96.50
14192;DHT22;7177;48.572;7.838;2023-05-17T14:52:04;18.90;94.70
14192;DHT22;7177;48.572;7.838;2023-05-17T14:54:30;19.30;93.90
14192;DHT22;7177;48.572;7.838;2023-05-17T14:56:57;19.40;94.10
14192;DHT22;7177;48.572;7.838;2023-05-17T14:59:23;19.50;94.80
14192;DHT22;7177;48.572;7.838;2023-05-17T15:01:49;19.60;92.60
14192;DHT22;7177;48.572;7.838;2023-05-17T15:04:15;19.60;92.80
14192;DHT22;7177;48.572;7.838;2023-05-17T15:06:40;19.60;92.10
14192;DHT22;7177;48.572;7.838;2023-05-17T15:09:06;19.30;92.60
14192;DHT22;7177;48.572;7.838;2023-05-17T15:11:32;19.40;92.50
14192;DHT22;7177;48.572;7.838;2023-05-17T15:13:58;19.40;88.20
14192;DHT22;7177;48.572;7.838;2023-05-17T15:16:24;19.40;87.40
14192;DHT22;7177;48.572;7.838;2023-05-17T15:18:49;19.20;86.50
14192;DHT22;7177;48.572;7.838;2023-05-17T15:21:16;19.10;88.90
14192;DHT22;7177;48.572;7.838;2023-05-17T15:23:43;18.80;90.40
14192;DHT22;7177;48.572;7.838;2023-05-17T15:26:08;18.00;90.60
14192;DHT22;7177;48.572;7.838;2023-05-17T15:28:34;17.70;90.50
14192;DHT22;7177;48.572;7.838;2023-05-17T15:31:00;18.00;90.80
14192;DHT22;7177;48.572;7.838;2023-05-17T15:33:26;18.40;90.40
14192;DHT22;7177;48.572;7.838;2023-05-17T15:35:52;18.70;88.40
14192;DHT22;7177;48.572;7.838;2023-05-17T15:38:18;19.00;90.70
14192;DHT22;7177;48.572;7.838;2023-05-17T15:40:44;19.10;87.50
14192;DHT22;7177;48.572;7.838;2023-05-17T15:43:09;19.30;89.70
14192;DHT22;7177;48.572;7.838;2023-05-17T15:45:35;19.30;88.10
14192;DHT22;7177;48.572;7.838;2023-05-17T15:48:00;19.50;86.40
14192;DHT22;7177;48.572;7.838;2023-05-17T15:50:26;19.40;85.80
14192;DHT22;7177;48.572;7.838;2023-05-17T15:52:52;19.10;83.70
14192;DHT22;7177;48.572;7.838;2023-05-17T15:55:18;19.00;87.20
14192;DHT22;7177;48.572;7.838;2023-05-17T15:57:43;18.60;86.40
14192;DHT22;7177;48.572;7.838;2023-05-17T16:00:09;18.10;90.20
14192;DHT22;7177;48.572;7.838;2023-05-17T16:02:35;17.70;89.10
14192;DHT22;7177;48.572;7.838;2023-05-17T16:05:01;17.30;91.30
14192;DHT22;7177;48.572;7.838;2023-05-17T16:07:26;17.20;91.20
14192;DHT22;7177;48.572;7.838;2023-05-17T16:09:52;17.20;91.40
14192;DHT22;7177;48.572;7.838;2023-05-17T16:12:17;17.50;92.00
14192;DHT22;7177;48.572;7.838;2023-05-17T16:14:43;17.70;90.20
14192;DHT22;7177;48.572;7.838;2023-05-17T16:17:09;18.00;91.00